Елизово

СКИДКИ НА СМАРТФОНЫ!

Карта отелей и гостиниц, располагающихся рядом с аэропортом Елизово :

Елизово
Петропавловск-Камчатский
Камчатский край 53° 10' 12.6588" N, 158° 27' 12.5388" E
Код аэродрома ИКАО
UHPP
Код аэродрома RU
УХПП
Координаты
N53.17018° E158.45348°
Превышение над уровнем моря
40
Основная полоса
16R/34L
Курс магнитный
163,7/343,7
Длина основной ВПП
3410
Ширина основной ВПП
60
Покрытие основной ВПП
Твёрдое (железобетон)
Освещение ВПП
Постоянное
Тип: 
Аэродром
Класс аэродрома: 
Международный
Принадлежность: 
ГА
Статус: 
Действующий
Сайт: 
airport-pkc.ru
Страна: 
Россия
Регион: 
Камчатский край
Город: 
Петропавловск-Камчатский
Дополнительная информация: 
Военный индекс: ЬХПП/XHPP. Оператор: ОАО «КАП» (Камчатское авиапредприятие). Совместного базирования (ФАВТ/МОРФ/ФСБ). 1 апреля 2012 началась реконструкция закрытой в 1970-е ИВПП 16R/34L, которая затянулась из-за мошенничества.
Схемы аэропортов: 
Погода: 

Авиационная погода в Елизово

Регион: 
Погода METAR: 
UHPP 250400Z 33002MPS 7000 -SHRA BKN004 OVC020CB 08/08 Q1008 R34L/290250 NOSIG RMK MT OBSC QFE752/1003
Время наблюдения
2022-09-25T04:00:00Z
Температура C
8.0
Точка росы
8.0
Направление ветра
330
Скорость ветра (узлы)
4
Метео видимость
4.35
Облачность
BKN
OVC
Нижняя граница облачности (футы)
400
2000
Явления погоды
-SHRA
Условия полета
LIFR
Аэропорт подробнее: 
BKN – значительная (рассеянная, разорванная) облачность; OVC – сплошная облачность;
-SHRA - слабый ливневой дождь;

Скидки на навигаторы!

Найти трансфер

С помощью этой формы Вы можете найти трансфер из аэропорта Елизово в город, аэропорт или вокзал:

Погода в аэропортах:

Авиационная погода в Курске

Погода METAR: 
UUOK 250400Z 31006MPS 9999 -RA OVC030 07/06 Q1005 R30/290050 NOSIG RMK QFE735/0980
Время наблюдения
2022-09-25T04:00:00Z
Температура C
7.0
Точка росы
6.0
Направление ветра
310
Скорость ветра (узлы)
12
Метео видимость
6.21
Облачность
OVC
Нижняя граница облачности (футы)
3000
Явления погоды
-RA
Условия полета
MVFR
Аэропорт подробнее: 
OVC – сплошная облачность;
-RA - слабый дождь;

Авиационная погода в Москва - Шереметьево

Погода METAR: 
UUEE 250400Z 36003MPS 320V030 6000 -DZ OVC003 06/05 Q0997 R06R/290045 R06C/290051 NOSIG
Время наблюдения
2022-09-25T04:00:00Z
Температура C
6.0
Точка росы
5.0
Направление ветра
360
Скорость ветра (узлы)
6
Метео видимость
3.73
Облачность
OVC
Нижняя граница облачности (футы)
300
Явления погоды
-DZ
Условия полета
LIFR
Аэропорт подробнее: 
OVC – сплошная облачность;
-DZ – слабая морось;

Авиационная погода в аэропорту Бесовец

Регион: 
Погода METAR: 
ULPB 250400Z AUTO 04003MPS 010V070 9999 -DZ 06/05 Q1008 RMK QBB330 QFE752/1003
Время наблюдения
2022-09-25T04:00:00Z
Температура C
6.0
Точка росы
5.0
Направление ветра
40
Скорость ветра (узлы)
6
Метео видимость
6.21
Облачность
Нижняя граница облачности (футы)
Явления погоды
-DZ
Условия полета
Аэропорт подробнее: 
-DZ – слабая морось;

Авиационная погода в аэропорту Алыкель

Регион: 
Погода METAR: 
UOOO 250400Z 02011MPS 9999 DRSN SCT008 BKN044 M03/M03 Q1012 R01/31//60 NOSIG RMK QFE745/0993
Время наблюдения
2022-09-25T04:00:00Z
Температура C
-3.0
Точка росы
-3.0
Направление ветра
20
Скорость ветра (узлы)
21
Метео видимость
6.21
Облачность
SCT
BKN
Нижняя граница облачности (футы)
800
4400
Явления погоды
DRSN
Условия полета
VFR
Аэропорт подробнее: 
SCT – разбросанная отдельная облачность; BKN – значительная (рассеянная, разорванная) облачность;
DRSN – снежный позёмок;